Time;durP1;ratioP1;P1;durP2;ratioP2;P2;SDS_P1;SDS_P2;PMS_P1;PMS_P2;Temp;Humidity;BMP_temperature;BMP_pressure;BME280_temperature;BME280_humidity;BME280_pressure;Samples;Min_cycle;Max_cycle;Signal;HPM_P1;HPM_P2
2023/06/22 00:00:41;;;;;;;;;;;;;;;;;;5114222;28;660;-62
2023/06/22 00:03:07;;;;;;;;;;;;;;;;;;5112553;28;1278;-63
2023/06/22 00:05:33;;;;;;;;;;;;;;;;;;5114873;28;968;-62
2023/06/22 00:07:58;;;;;;;;;;;;;;;;;;5114225;28;987;-62
2023/06/22 00:10:23;;;;;;;;;;;;;;;;;;5114218;28;1918;-62
2023/06/22 00:12:48;;;;;;;;;;;;;;;;;;5114553;28;904;-62
2023/06/22 00:15:14;;;;;;;;;;;;;;;;;;5114920;28;960;-62
2023/06/22 00:17:39;;;;;;;;;;;;;;;;;;5113862;28;726;-62
2023/06/22 00:20:05;;;;;;;;;;;;;;;;;;5114190;28;838;-62
2023/06/22 00:22:31;;;;;;;;;;;;;;;;;;5114524;28;863;-62
2023/06/22 00:24:56;;;;;;;;;;;;;;;;;;5113902;28;1342;-62
2023/06/22 00:27:21;;;;;;;;;;;;;;;;;;5114063;28;920;-62
2023/06/22 00:29:47;;;;;;;;;;;;;;;;;;5113385;28;960;-62
2023/06/22 00:32:12;;;;;;;;;;;;;;;;;;5113382;28;1893;-62
2023/06/22 00:34:37;;;;;;;;;;;;;;;;;;5113472;28;1007;-62
2023/06/22 00:37:02;;;;;;;;;;;;;;;;;;5113700;28;853;-62
2023/06/22 00:39:28;;;;;;;;;;;;;;;;;;5113280;28;841;-62
2023/06/22 00:41:53;;;;;;;;;;;;;;;;;;5114156;28;1027;-63
2023/06/22 00:44:18;;;;;;;;;;;;;;;;;;5113211;28;837;-62
2023/06/22 00:46:44;;;;;;;;;;;;;;;;;;5111173;28;877;-62
2023/06/22 00:49:09;;;;;;;;;;;;;;;;;;5113215;28;857;-62
2023/06/22 00:51:37;;;;;;;;;;;;;;;;;;5112658;28;1901;-62
2023/06/22 00:54:03;;;;;;;;;;;;;;;;;;5112570;28;816;-62
2023/06/22 00:56:29;;;;;;;;;;;;;;;;;;5112378;28;919;-62
2023/06/22 00:58:57;;;;;;;;;;;;;;;;;;5113263;28;872;-62
2023/06/22 01:01:22;;;;;;;;;;;;;;;;;;5094776;28;1693;-63
2023/06/22 01:03:48;;;;;;;;;;;;;;;;;;5112729;28;809;-62
2023/06/22 01:06:18;;;;;;;;;;;;;;;;;;5112421;28;848;-62
2023/06/22 01:08:44;;;;;;;;;;;;;;;;;;5112713;28;931;-62
2023/06/22 01:11:29;;;;;;;;;;;;;;;;;;5112979;28;1906;-62
2023/06/22 01:13:59;;;;;;;;;;;;;;;;;;5098475;28;1230;-62
2023/06/22 01:16:32;;;;;;;;;;;;;;;;;;5112683;28;892;-63
2023/06/22 01:19:00;;;;;;;;;;;;;;;;;;5112505;28;951;-62
2023/06/22 01:21:27;;;;;;;;;;;;;;;;;;5112229;28;909;-63
2023/06/22 01:24:07;;;;;;;;;;;;;;;;;;5112230;28;947;-62
2023/06/22 01:26:47;;;;;;;;;;;;;;;;;;5112199;28;971;-62
2023/06/22 01:29:14;;;;;;;;;;;;;;;;;;5112043;28;892;-62
2023/06/22 01:31:41;;;;;;;;;;;;;;;;;;5112113;28;1949;-62
2023/06/22 01:34:08;;;;;;;;;;;;;;;;;;5111676;28;821;-62
2023/06/22 01:36:33;;;;;;;;;;;;;;;;;;5112714;28;859;-62
2023/06/22 01:38:59;;;;;;;;;;;;;;;;;;5112321;28;864;-62
2023/06/22 01:41:25;;;;;;;;;;;;;;;;;;5111915;28;889;-62
2023/06/22 01:43:52;;;;;;;;;;;;;;;;;;5111157;28;940;-62
2023/06/22 01:46:19;;;;;;;;;;;;;;;;;;5111698;28;1046;-62
2023/06/22 01:48:44;;;;;;;;;;;;;;;;;;5112319;28;842;-62
2023/06/22 01:51:10;;;;;;;;;;;;;;;;;;5111971;28;1901;-62
2023/06/22 01:53:35;;;;;;;;;;;;;;;;;;5111563;28;944;-62
2023/06/22 01:56:00;;;;;;;;;;;;;;;;;;5112012;28;1057;-62
2023/06/22 01:58:26;;;;;;;;;;;;;;;;;;5113646;28;798;-63
2023/06/22 02:00:55;;;;;;;;;;;;;;;;;;5117254;28;900;-62
2023/06/22 02:03:29;;;;;;;;;;;;;;;;;;5114899;28;1444;-62
2023/06/22 02:05:58;;;;;;;;;;;;;;;;;;5117023;28;909;-63
2023/06/22 02:08:30;;;;;;;;;;;;;;;;;;5116113;28;987;-62
2023/06/22 02:10:56;;;;;;;;;;;;;;;;;;5115944;28;1893;-62
2023/06/22 02:13:24;;;;;;;;;;;;;;;;;;5116319;28;876;-61
2023/06/22 02:15:49;;;;;;;;;;;;;;;;;;5115262;28;885;-61
2023/06/22 02:18:14;;;;;;;;;;;;;;;;;;5115604;28;825;-61
2023/06/22 02:20:39;;;;;;;;;;;;;;;;;;5115347;28;913;-62
2023/06/22 02:23:06;;;;;;;;;;;;;;;;;;5115389;28;983;-62
2023/06/22 02:25:31;;;;;;;;;;;;;;;;;;5114023;28;833;-62
2023/06/22 02:27:57;;;;;;;;;;;;;;;;;;5115345;28;849;-62
2023/06/22 02:30:22;;;;;;;;;;;;;;;;;;5113629;28;1972;-61
2023/06/22 02:32:47;;;;;;;;;;;;;;;;;;5113688;28;897;-61
2023/06/22 02:35:13;;;;;;;;;;;;;;;;;;5114940;28;964;-62
2023/06/22 02:37:41;;;;;;;;;;;;;;;;;;5115350;28;901;-62
2023/06/22 02:40:08;;;;;;;;;;;;;;;;;;5114979;28;924;-62
2023/06/22 02:42:34;;;;;;;;;;;;;;;;;;5113214;28;940;-63
2023/06/22 02:44:59;;;;;;;;;;;;;;;;;;5114509;27;1139;-62
2023/06/22 02:47:25;;;;;;;;;;;;;;;;;;5115181;28;975;-62
2023/06/22 02:49:50;;;;;;;;;;;;;;;;;;5113200;28;892;-62
2023/06/22 02:52:16;;;;;;;;;;;;;;;;;;5114290;28;1953;-63
2023/06/22 02:54:41;;;;;;;;;;;;;;;;;;5114708;28;979;-61
2023/06/22 02:57:06;;;;;;;;;;;;;;;;;;5114322;28;1017;-62
2023/06/22 02:59:31;;;;;;;;;;;;;;;;;;5113878;28;856;-62
2023/06/22 03:01:57;;;;;;;;;;;;;;;;;;5114894;28;1305;-62
2023/06/22 03:04:22;;;;;;;;;;;;;;;;;;5114621;28;811;-62
2023/06/22 03:06:50;;;;;;;;;;;;;;;;;;5114941;28;959;-62
2023/06/22 03:09:16;;;;;;;;;;;;;;;;;;5113828;28;928;-62
2023/06/22 03:11:42;;;;;;;;;;;;;;;;;;5114226;28;1897;-62
2023/06/22 03:14:07;;;;;;;;;;;;;;;;;;5114261;28;948;-62
2023/06/22 03:16:33;;;;;;;;;;;;;;;;;;5113962;28;1170;-62
2023/06/22 03:18:58;;;;;;;;;;;;;;;;;;5114531;28;833;-62
2023/06/22 03:21:25;;;;;;;;;;;;;;;;;;5113898;28;861;-62
2023/06/22 03:23:50;;;;;;;;;;;;;;;;;;5114329;28;869;-62
2023/06/22 03:26:17;;;;;;;;;;;;;;;;;;5114338;28;899;-63
2023/06/22 03:28:42;;;;;;;;;;;;;;;;;;5113598;28;1123;-62
2023/06/22 03:31:08;;;;;;;;;;;;;;;;;;5113958;28;1878;-62
2023/06/22 03:33:33;;;;;;;;;;;;;;;;;;5113352;28;920;-62
2023/06/22 03:35:58;;;;;;;;;;;;;;;;;;5114110;28;860;-62
2023/06/22 03:38:23;;;;;;;;;;;;;;;;;;5113750;28;991;-62
2023/06/22 03:40:49;;;;;;;;;;;;;;;;;;5113900;28;861;-62
2023/06/22 03:43:14;;;;;;;;;;;;;;;;;;5114091;28;1248;-62
2023/06/22 03:45:40;;;;;;;;;;;;;;;;;;5113729;28;995;-62
2023/06/22 03:48:06;;;;;;;;;;;;;;;;;;5114479;28;793;-62
2023/06/22 03:50:31;;;;;;;;;;;;;;;;;;5113751;27;1910;-63
2023/06/22 03:52:56;;;;;;;;;;;;;;;;;;5114402;28;888;-63
2023/06/22 03:55:21;;;;;;;;;;;;;;;;;;5114211;28;976;-63
2023/06/22 03:57:47;;;;;;;;;;;;;;;;;;5113770;27;1040;-63
2023/06/22 04:00:12;;;;;;;;;;;;;;;;;;5113084;28;853;-63
2023/06/22 04:02:38;;;;;;;;;;;;;;;;;;5113756;28;1208;-63
2023/06/22 04:05:03;;;;;;;;;;;;;;;;;;5114637;28;872;-63
2023/06/22 04:07:28;;;;;;;;;;;;;;;;;;5113939;28;864;-63
2023/06/22 04:09:53;;;;;;;;;;;;;;;;;;5113038;28;1316;-63
2023/06/22 04:12:19;;;;;;;;;;;;;;;;;;5114179;28;1973;-63
2023/06/22 04:14:44;;;;;;;;;;;;;;;;;;5113932;28;917;-63
2023/06/22 04:17:09;;;;;;;;;;;;;;;;;;5114344;28;940;-63
2023/06/22 04:19:34;;;;;;;;;;;;;;;;;;5113146;28;947;-63
2023/06/22 04:22:00;;;;;;;;;;;;;;;;;;5113300;28;912;-63
2023/06/22 04:24:28;;;;;;;;;;;;;;;;;;5113303;28;920;-63
2023/06/22 04:26:54;;;;;;;;;;;;;;;;;;5112844;28;829;-63
2023/06/22 04:29:19;;;;;;;;;;;;;;;;;;5112403;28;869;-63
2023/06/22 04:31:47;;;;;;;;;;;;;;;;;;5112543;28;1898;-63
2023/06/22 04:34:16;;;;;;;;;;;;;;;;;;5112714;28;857;-63
2023/06/22 04:36:41;;;;;;;;;;;;;;;;;;5111928;28;903;-63
2023/06/22 04:39:09;;;;;;;;;;;;;;;;;;5113559;28;1143;-63
2023/06/22 04:41:41;;;;;;;;;;;;;;;;;;5112181;28;1535;-61
2023/06/22 04:44:07;;;;;;;;;;;;;;;;;;5113451;28;845;-62
2023/06/22 04:46:35;;;;;;;;;;;;;;;;;;5112438;28;837;-62
2023/06/22 04:49:00;;;;;;;;;;;;;;;;;;5111384;28;1311;-62
2023/06/22 04:51:30;;;;;;;;;;;;;;;;;;5110168;28;1894;-62
2023/06/22 04:54:00;;;;;;;;;;;;;;;;;;5111926;27;887;-63
2023/06/22 04:56:27;;;;;;;;;;;;;;;;;;5111624;28;1199;-62
2023/06/22 04:58:55;;;;;;;;;;;;;;;;;;5111579;28;1133;-62
2023/06/22 05:01:22;;;;;;;;;;;;;;;;;;5111753;28;1251;-62
2023/06/22 05:03:47;;;;;;;;;;;;;;;;;;5111097;28;1132;-62
2023/06/22 05:06:14;;;;;;;;;;;;;;;;;;5112403;28;829;-62
2023/06/22 05:08:39;;;;;;;;;;;;;;;;;;5112142;28;889;-63
2023/06/22 05:11:04;;;;;;;;;;;;;;;;;;5112522;28;1886;-63
2023/06/22 05:13:30;;;;;;;;;;;;;;;;;;5112030;28;873;-63
2023/06/22 05:16:00;;;;;;;;;;;;;;;;;;5111893;28;1188;-63
2023/06/22 05:18:26;;;;;;;;;;;;;;;;;;5111702;28;868;-63
2023/06/22 05:20:52;;;;;;;;;;;;;;;;;;5112734;28;889;-63
2023/06/22 05:23:17;;;;;;;;;;;;;;;;;;5112154;28;837;-61
2023/06/22 05:25:42;;;;;;;;;;;;;;;;;;5112020;28;960;-62
2023/06/22 05:28:11;;;;;;;;;;;;;;;;;;5112036;28;980;-62
2023/06/22 05:30:36;;;;;;;;;;;;;;;;;;5111743;28;1902;-62
2023/06/22 05:33:01;;;;;;;;;;;;;;;;;;5111956;28;912;-62
2023/06/22 05:35:26;;;;;;;;;;;;;;;;;;5110323;28;1230;-62
2023/06/22 05:37:52;;;;;;;;;;;;;;;;;;5106363;28;1175;-62
2023/06/22 05:40:17;;;;;;;;;;;;;;;;;;5110803;28;1140;-62
2023/06/22 05:42:42;;;;;;;;;;;;;;;;;;5112640;28;1128;-62
2023/06/22 05:45:08;;;;;;;;;;;;;;;;;;5113031;28;1179;-62
2023/06/22 05:47:33;;;;;;;;;;;;;;;;;;5112295;28;901;-62
2023/06/22 05:49:58;;;;;;;;;;;;;;;;;;5112202;28;1143;-62
2023/06/22 05:52:23;;;;;;;;;;;;;;;;;;5111641;28;1905;-62
2023/06/22 05:54:49;;;;;;;;;;;;;;;;;;5111843;28;1018;-62
2023/06/22 05:57:15;;;;;;;;;;;;;;;;;;5112088;28;849;-62
2023/06/22 05:59:40;;;;;;;;;;;;;;;;;;5111393;28;884;-62
2023/06/22 06:02:05;;;;;;;;;;;;;;;;;;5112097;28;1028;-62
2023/06/22 06:04:30;;;;;;;;;;;;;;;;;;5112271;28;849;-62
2023/06/22 06:06:56;;;;;;;;;;;;;;;;;;5111000;28;892;-62
2023/06/22 06:09:21;;;;;;;;;;;;;;;;;;5111702;28;833;-62
2023/06/22 06:11:46;;;;;;;;;;;;;;;;;;5110703;28;1917;-62
2023/06/22 06:14:12;;;;;;;;;;;;;;;;;;5110792;28;1019;-62
2023/06/22 06:16:37;;;;;;;;;;;;;;;;;;5110749;28;1098;-62
2023/06/22 06:19:02;;;;;;;;;;;;;;;;;;5111374;28;833;-62
2023/06/22 06:21:28;;;;;;;;;;;;;;;;;;5111330;28;845;-61
2023/06/22 06:23:53;;;;;;;;;;;;;;;;;;5111293;28;886;-61
2023/06/22 06:26:22;;;;;;;;;;;;;;;;;;5109907;28;857;-61
2023/06/22 06:28:48;;;;;;;;;;;;;;;;;;5110952;28;1002;-62
2023/06/22 06:31:17;;;;;;;;;;;;;;;;;;5109974;28;1913;-62
2023/06/22 06:33:42;;;;;;;;;;;;;;;;;;5110434;28;1005;-62
2023/06/22 06:36:08;;;;;;;;;;;;;;;;;;5109267;28;1286;-62
2023/06/22 06:38:33;;;;;;;;;;;;;;;;;;5110597;28;1447;-62
2023/06/22 06:40:59;;;;;;;;;;;;;;;;;;5110647;28;922;-62
2023/06/22 06:43:24;;;;;;;;;;;;;;;;;;5111512;28;927;-63
2023/06/22 06:45:50;;;;;;;;;;;;;;;;;;5113882;28;912;-63
2023/06/22 06:48:15;;;;;;;;;;;;;;;;;;5114996;28;949;-62
2023/06/22 06:50:40;;;;;;;;;;;;;;;;;;5114455;28;1897;-62
2023/06/22 06:53:06;;;;;;;;;;;;;;;;;;5114863;28;864;-63
2023/06/22 06:55:32;;;;;;;;;;;;;;;;;;5114219;27;996;-62
2023/06/22 06:57:58;;;;;;;;;;;;;;;;;;5114028;28;1183;-62
2023/06/22 07:00:24;;;;;;;;;;;;;;;;;;5114224;28;1230;-62
2023/06/22 07:02:50;;;;;;;;;;;;;;;;;;5111493;28;1150;-63
2023/06/22 07:05:15;;;;;;;;;;;;;;;;;;5107622;28;1104;-62
2023/06/22 07:07:41;;;;;;;;;;;;;;;;;;5112283;28;1199;-63
2023/06/22 07:10:07;;;;;;;;;;;;;;;;;;5113904;28;1222;-62
2023/06/22 07:12:32;;;;;;;;;;;;;;;;;;5114250;28;1906;-62
2023/06/22 07:15:02;;;;;;;;;;;;;;;;;;5113723;28;1015;-62
2023/06/22 07:17:27;;;;;;;;;;;;;;;;;;5114928;28;861;-62
2023/06/22 07:19:53;;;;;;;;;;;;;;;;;;5114298;28;959;-63
2023/06/22 07:22:18;;;;;;;;;;;;;;;;;;5114895;28;873;-62
2023/06/22 07:24:43;;;;;;;;;;;;;;;;;;5112690;28;1207;-61
2023/06/22 07:27:11;;;;;;;;;;;;;;;;;;5112805;28;1151;-61
2023/06/22 07:29:36;;;;;;;;;;;;;;;;;;5111753;28;814;-62
2023/06/22 07:32:04;;;;;;;;;;;;;;;;;;5113981;27;1898;-62
2023/06/22 07:34:30;;;;;;;;;;;;;;;;;;5112636;28;1252;-62
2023/06/22 07:36:55;;;;;;;;;;;;;;;;;;5093044;28;1183;-61
2023/06/22 07:39:25;;;;;;;;;;;;;;;;;;5093994;28;857;-62
2023/06/22 07:41:51;;;;;;;;;;;;;;;;;;5091869;28;1724;-61
2023/06/22 07:44:16;;;;;;;;;;;;;;;;;;5092385;28;766;-62
2023/06/22 07:46:41;;;;;;;;;;;;;;;;;;5091377;28;908;-62
2023/06/22 07:49:08;;;;;;;;;;;;;;;;;;5093490;28;920;-62
2023/06/22 07:51:33;;;;;;;;;;;;;;;;;;5093389;28;1905;-62
2023/06/22 07:53:59;;;;;;;;;;;;;;;;;;5093613;28;1015;-62
2023/06/22 07:56:24;;;;;;;;;;;;;;;;;;5093821;28;889;-62
2023/06/22 07:58:49;;;;;;;;;;;;;;;;;;5093185;28;932;-62
2023/06/22 08:01:15;;;;;;;;;;;;;;;;;;5093321;28;960;-62
2023/06/22 08:03:40;;;;;;;;;;;;;;;;;;5091904;28;1162;-62
2023/06/22 08:06:09;;;;;;;;;;;;;;;;;;5093253;28;844;-62
2023/06/22 08:08:34;;;;;;;;;;;;;;;;;;5092586;28;924;-62
2023/06/22 08:10:59;;;;;;;;;;;;;;;;;;5092242;28;1969;-62
2023/06/22 08:13:25;;;;;;;;;;;;;;;;;;5092688;28;1023;-62
2023/06/22 08:15:50;;;;;;;;;;;;;;;;;;5090871;28;837;-62
2023/06/22 08:18:16;;;;;;;;;;;;;;;;;;5092686;28;925;-62
2023/06/22 08:20:41;;;;;;;;;;;;;;;;;;5092086;28;837;-62
2023/06/22 08:23:07;;;;;;;;;;;;;;;;;;5092091;28;794;-62
2023/06/22 08:25:32;;;;;;;;;;;;;;;;;;5092598;28;979;-62
2023/06/22 08:27:58;;;;;;;;;;;;;;;;;;5092181;28;928;-62
2023/06/22 08:30:23;;;;;;;;;;;;;;;;;;5091159;28;1967;-62
2023/06/22 08:32:48;;;;;;;;;;;;;;;;;;5091392;28;900;-62
2023/06/22 08:35:14;;;;;;;;;;;;;;;;;;5092138;28;828;-62
2023/06/22 08:37:39;;;;;;;;;;;;;;;;;;5092096;28;797;-62
2023/06/22 08:40:07;;;;;;;;;;;;;;;;;;5092186;28;857;-62
2023/06/22 08:42:33;;;;;;;;;;;;;;;;;;5090259;28;888;-62
2023/06/22 08:44:58;;;;;;;;;;;;;;;;;;5090393;28;921;-62
2023/06/22 08:47:23;;;;;;;;;;;;;;;;;;5090774;28;858;-62
2023/06/22 08:49:49;;;;;;;;;;;;;;;;;;5091965;28;852;-62
2023/06/22 08:52:14;;;;;;;;;;;;;;;;;;5092129;28;1874;-62
2023/06/22 08:54:39;;;;;;;;;;;;;;;;;;5092206;28;845;-62
2023/06/22 08:57:05;;;;;;;;;;;;;;;;;;5090776;28;997;-62
2023/06/22 08:59:30;;;;;;;;;;;;;;;;;;5092428;28;861;-62
2023/06/22 09:01:56;;;;;;;;;;;;;;;;;;5091747;28;1058;-62
2023/06/22 09:04:23;;;;;;;;;;;;;;;;;;5092210;28;1307;-62
2023/06/22 09:06:49;;;;;;;;;;;;;;;;;;5091417;28;805;-62
2023/06/22 09:09:15;;;;;;;;;;;;;;;;;;5091882;28;912;-62
2023/06/22 09:11:40;;;;;;;;;;;;;;;;;;5090282;28;1910;-62
2023/06/22 09:14:06;;;;;;;;;;;;;;;;;;5092385;28;876;-62
2023/06/22 09:16:31;;;;;;;;;;;;;;;;;;5091922;28;833;-62
2023/06/22 09:18:57;;;;;;;;;;;;;;;;;;5091921;28;963;-62
2023/06/22 09:21:23;;;;;;;;;;;;;;;;;;5092496;28;951;-62
2023/06/22 09:23:51;;;;;;;;;;;;;;;;;;5091851;28;932;-63
2023/06/22 09:26:16;;;;;;;;;;;;;;;;;;5091500;28;901;-62
2023/06/22 09:28:41;;;;;;;;;;;;;;;;;;5091299;28;967;-61
2023/06/22 09:31:07;;;;;;;;;;;;;;;;;;5091503;28;1894;-62
2023/06/22 09:33:32;;;;;;;;;;;;;;;;;;5091490;28;924;-61
2023/06/22 09:35:57;;;;;;;;;;;;;;;;;;5090977;28;1008;-61
2023/06/22 09:38:22;;;;;;;;;;;;;;;;;;5091783;28;849;-62
2023/06/22 09:40:48;;;;;;;;;;;;;;;;;;5091295;28;856;-62
2023/06/22 09:43:13;;;;;;;;;;;;;;;;;;5091686;28;932;-62
2023/06/22 09:45:38;;;;;;;;;;;;;;;;;;5091702;28;821;-62
2023/06/22 09:48:04;;;;;;;;;;;;;;;;;;5091712;28;899;-62
2023/06/22 09:50:29;;;;;;;;;;;;;;;;;;5092226;28;1972;-62
2023/06/22 09:52:54;;;;;;;;;;;;;;;;;;5092031;28;595;-62
2023/06/22 09:55:23;;;;;;;;;;;;;;;;;;5092174;28;881;-62
2023/06/22 09:57:48;;;;;;;;;;;;;;;;;;5091229;28;793;-62
2023/06/22 10:00:16;;;;;;;;;;;;;;;;;;5091608;28;833;-62
2023/06/22 10:02:41;;;;;;;;;;;;;;;;;;5090913;28;1215;-62
2023/06/22 10:05:07;;;;;;;;;;;;;;;;;;5091704;28;841;-62
2023/06/22 10:07:33;;;;;;;;;;;;;;;;;;5091384;28;1180;-62
2023/06/22 10:09:58;;;;;;;;;;;;;;;;;;5091040;28;675;-62
2023/06/22 10:12:23;;;;;;;;;;;;;;;;;;5091299;28;1910;-62
2023/06/22 10:14:48;;;;;;;;;;;;;;;;;;5091035;28;1011;-62
2023/06/22 10:17:14;;;;;;;;;;;;;;;;;;5091174;28;1015;-61
2023/06/22 10:19:41;;;;;;;;;;;;;;;;;;5092817;28;900;-61
2023/06/22 10:22:06;;;;;;;;;;;;;;;;;;5093466;28;920;-61
2023/06/22 10:24:31;;;;;;;;;;;;;;;;;;5095532;28;857;-61
2023/06/22 10:26:57;;;;;;;;;;;;;;;;;;5092783;28;861;-61
2023/06/22 10:29:22;;;;;;;;;;;;;;;;;;5095191;28;952;-61
2023/06/22 10:31:47;;;;;;;;;;;;;;;;;;5094259;28;1956;-62
2023/06/22 10:34:12;;;;;;;;;;;;;;;;;;5094968;28;868;-62
2023/06/22 10:36:38;;;;;;;;;;;;;;;;;;5094981;28;653;-62
2023/06/22 10:39:03;;;;;;;;;;;;;;;;;;5094230;28;912;-62
2023/06/22 10:41:31;;;;;;;;;;;;;;;;;;5094830;28;991;-62
2023/06/22 10:43:57;;;;;;;;;;;;;;;;;;5094244;28;887;-62
2023/06/22 10:46:24;;;;;;;;;;;;;;;;;;5094966;28;836;-62
2023/06/22 10:48:49;;;;;;;;;;;;;;;;;;5093724;28;829;-61
2023/06/22 10:51:14;;;;;;;;;;;;;;;;;;5095050;28;1901;-62
2023/06/22 10:53:39;;;;;;;;;;;;;;;;;;5094756;28;868;-64
2023/06/22 10:56:05;;;;;;;;;;;;;;;;;;5094633;28;940;-62
2023/06/22 10:58:30;;;;;;;;;;;;;;;;;;5094672;28;841;-61
2023/06/22 11:00:55;;;;;;;;;;;;;;;;;;5094032;28;1026;-62
2023/06/22 11:03:21;;;;;;;;;;;;;;;;;;5094849;28;1274;-63
2023/06/22 11:05:47;;;;;;;;;;;;;;;;;;5093102;28;1165;-63
2023/06/22 11:08:12;;;;;;;;;;;;;;;;;;5094494;28;916;-63
2023/06/22 11:10:38;;;;;;;;;;;;;;;;;;5094072;28;1906;-63
2023/06/22 11:13:04;;;;;;;;;;;;;;;;;;5094286;28;822;-63
2023/06/22 11:15:29;;;;;;;;;;;;;;;;;;5094909;28;857;-63
2023/06/22 11:17:54;;;;;;;;;;;;;;;;;;5093369;28;845;-63
2023/06/22 11:20:20;;;;;;;;;;;;;;;;;;5093787;28;849;-61
2023/06/22 11:22:45;;;;;;;;;;;;;;;;;;5093793;28;994;-63
2023/06/22 11:25:11;;;;;;;;;;;;;;;;;;5093711;28;940;-63
2023/06/22 11:27:37;;;;;;;;;;;;;;;;;;5093992;28;884;-63
2023/06/22 11:30:03;;;;;;;;;;;;;;;;;;5093270;28;920;-63
2023/06/22 11:32:28;;;;;;;;;;;;;;;;;;5093505;28;1967;-63
2023/06/22 11:34:53;;;;;;;;;;;;;;;;;;5093535;28;853;-63
2023/06/22 11:37:18;;;;;;;;;;;;;;;;;;5094002;28;877;-63
2023/06/22 11:39:44;;;;;;;;;;;;;;;;;;5093326;28;865;-63
2023/06/22 11:42:09;;;;;;;;;;;;;;;;;;5092797;28;858;-63
2023/06/22 11:44:35;;;;;;;;;;;;;;;;;;5093728;28;889;-63
2023/06/22 11:47:01;;;;;;;;;;;;;;;;;;5093668;28;932;-63
2023/06/22 11:49:26;;;;;;;;;;;;;;;;;;5093628;28;825;-63
2023/06/22 11:51:51;;;;;;;;;;;;;;;;;;5093703;28;1906;-63
2023/06/22 11:54:17;;;;;;;;;;;;;;;;;;5092013;28;921;-63
2023/06/22 11:56:42;;;;;;;;;;;;;;;;;;5093245;28;1026;-63
2023/06/22 11:59:07;;;;;;;;;;;;;;;;;;5093205;28;1178;-62
2023/06/22 12:01:33;;;;;;;;;;;;;;;;;;5093703;28;881;-62
2023/06/22 12:03:58;;;;;;;;;;;;;;;;;;5092652;28;1519;-62
2023/06/22 12:06:23;;;;;;;;;;;;;;;;;;5093415;28;864;-62
2023/06/22 12:08:48;;;;;;;;;;;;;;;;;;5093058;28;905;-62
2023/06/22 12:11:14;;;;;;;;;;;;;;;;;;5092575;28;1965;-61
2023/06/22 12:13:39;;;;;;;;;;;;;;;;;;5092692;28;892;-62
2023/06/22 12:16:04;;;;;;;;;;;;;;;;;;5092439;28;1007;-63
2023/06/22 12:18:30;;;;;;;;;;;;;;;;;;5092700;28;908;-63
2023/06/22 12:20:55;;;;;;;;;;;;;;;;;;5092397;28;931;-63
2023/06/22 12:23:21;;;;;;;;;;;;;;;;;;5092527;28;813;-62
2023/06/22 12:25:46;;;;;;;;;;;;;;;;;;5092491;28;833;-62
2023/06/22 12:28:11;;;;;;;;;;;;;;;;;;5092458;28;862;-63
2023/06/22 12:30:37;;;;;;;;;;;;;;;;;;5092537;28;1894;-60
2023/06/22 12:33:02;;;;;;;;;;;;;;;;;;5092137;28;840;-61
2023/06/22 12:35:27;;;;;;;;;;;;;;;;;;5091913;28;1035;-60
2023/06/22 12:37:53;;;;;;;;;;;;;;;;;;5090754;28;932;-61
2023/06/22 12:40:18;;;;;;;;;;;;;;;;;;5090854;28;813;-61
2023/06/22 12:42:44;;;;;;;;;;;;;;;;;;5090302;28;1003;-61
2023/06/22 12:45:09;;;;;;;;;;;;;;;;;;5088790;28;1307;-61
2023/06/22 12:47:35;;;;;;;;;;;;;;;;;;5090830;28;873;-61
2023/06/22 12:50:00;;;;;;;;;;;;;;;;;;5090964;28;1117;-62
2023/06/22 12:52:25;;;;;;;;;;;;;;;;;;5092476;28;1913;-61
2023/06/22 12:54:52;;;;;;;;;;;;;;;;;;5090880;28;1019;-62
2023/06/22 12:57:17;;;;;;;;;;;;;;;;;;5091776;28;833;-61
2023/06/22 12:59:42;;;;;;;;;;;;;;;;;;5092231;28;880;-61
2023/06/22 13:02:08;;;;;;;;;;;;;;;;;;5091544;28;1388;-61
2023/06/22 13:04:33;;;;;;;;;;;;;;;;;;5091461;28;916;-61
2023/06/22 13:06:58;;;;;;;;;;;;;;;;;;5092722;28;912;-61
2023/06/22 13:09:23;;;;;;;;;;;;;;;;;;5092953;28;920;-61
2023/06/22 13:11:49;;;;;;;;;;;;;;;;;;5090837;28;1971;-61
2023/06/22 13:14:16;;;;;;;;;;;;;;;;;;5092051;28;821;-61
2023/06/22 13:16:41;;;;;;;;;;;;;;;;;;5092449;28;857;-61
2023/06/22 13:19:06;;;;;;;;;;;;;;;;;;5091833;28;908;-63
2023/06/22 13:21:32;;;;;;;;;;;;;;;;;;5092191;28;1007;-63
2023/06/22 13:23:57;;;;;;;;;;;;;;;;;;5091671;28;861;-63
2023/06/22 13:26:23;;;;;;;;;;;;;;;;;;5091174;28;841;-63
2023/06/22 13:28:48;;;;;;;;;;;;;;;;;;5091725;28;917;-63
2023/06/22 13:31:13;;;;;;;;;;;;;;;;;;5091704;28;1878;-62
2023/06/22 13:33:40;;;;;;;;;;;;;;;;;;5092157;28;816;-61
2023/06/22 13:36:06;;;;;;;;;;;;;;;;;;5091599;28;916;-63
2023/06/22 13:38:32;;;;;;;;;;;;;;;;;;5092992;28;833;-63
2023/06/22 13:40:59;;;;;;;;;;;;;;;;;;5092052;28;829;-63
2023/06/22 13:43:24;;;;;;;;;;;;;;;;;;5091379;28;802;-62
2023/06/22 13:45:50;;;;;;;;;;;;;;;;;;5090764;28;979;-62
2023/06/22 13:48:15;;;;;;;;;;;;;;;;;;5092248;28;825;-62
2023/06/22 13:50:40;;;;;;;;;;;;;;;;;;5092166;28;1917;-62
2023/06/22 13:53:05;;;;;;;;;;;;;;;;;;5092630;28;999;-62
2023/06/22 13:55:31;;;;;;;;;;;;;;;;;;5099147;28;1038;-62
2023/06/22 13:57:56;;;;;;;;;;;;;;;;;;5098220;28;959;-62
2023/06/22 14:00:21;;;;;;;;;;;;;;;;;;5098426;28;865;-62
2023/06/22 14:02:47;;;;;;;;;;;;;;;;;;5098434;28;1116;-62
2023/06/22 14:05:12;;;;;;;;;;;;;;;;;;5098319;28;841;-61
2023/06/22 14:07:37;;;;;;;;;;;;;;;;;;5098670;28;1132;-62
2023/06/22 14:10:03;;;;;;;;;;;;;;;;;;5098954;28;901;-61
2023/06/22 14:12:29;;;;;;;;;;;;;;;;;;5097956;28;1989;-61
2023/06/22 14:14:54;;;;;;;;;;;;;;;;;;5099191;28;865;-62
2023/06/22 14:17:23;;;;;;;;;;;;;;;;;;5098621;28;916;-61
2023/06/22 14:19:49;;;;;;;;;;;;;;;;;;5098225;28;837;-62
2023/06/22 14:22:14;;;;;;;;;;;;;;;;;;5098021;28;916;-62
2023/06/22 14:24:39;;;;;;;;;;;;;;;;;;5097411;28;1338;-62
2023/06/22 14:27:07;;;;;;;;;;;;;;;;;;5098274;28;1035;-63
2023/06/22 14:29:32;;;;;;;;;;;;;;;;;;5098060;28;905;-62
2023/06/22 14:31:58;;;;;;;;;;;;;;;;;;5098310;28;1906;-63
2023/06/22 14:34:24;;;;;;;;;;;;;;;;;;5098921;28;932;-63
2023/06/22 14:36:49;;;;;;;;;;;;;;;;;;5098824;28;1031;-63
2023/06/22 14:39:14;;;;;;;;;;;;;;;;;;5097085;28;965;-62
2023/06/22 14:41:39;;;;;;;;;;;;;;;;;;5098484;28;1043;-62
2023/06/22 14:44:05;;;;;;;;;;;;;;;;;;5097869;28;944;-62
2023/06/22 14:46:30;;;;;;;;;;;;;;;;;;5098074;28;892;-62
2023/06/22 14:48:55;;;;;;;;;;;;;;;;;;5097663;28;904;-63
2023/06/22 14:51:21;;;;;;;;;;;;;;;;;;5097790;28;1902;-63
2023/06/22 14:53:46;;;;;;;;;;;;;;;;;;5096643;28;1054;-62
2023/06/22 14:56:12;;;;;;;;;;;;;;;;;;5097440;28;932;-63
2023/06/22 14:58:39;;;;;;;;;;;;;;;;;;5097607;28;1001;-62
2023/06/22 15:01:07;;;;;;;;;;;;;;;;;;5097525;28;1085;-63
2023/06/22 15:03:35;;;;;;;;;;;;;;;;;;5097608;28;1211;-61
2023/06/22 15:06:00;;;;;;;;;;;;;;;;;;5093908;28;929;-62
2023/06/22 15:08:25;;;;;;;;;;;;;;;;;;5094244;28;1171;-63
2023/06/22 15:10:51;;;;;;;;;;;;;;;;;;5094092;28;1958;-62
2023/06/22 15:13:17;;;;;;;;;;;;;;;;;;5094916;28;833;-62
2023/06/22 15:15:42;;;;;;;;;;;;;;;;;;5095107;28;844;-62
2023/06/22 15:18:07;;;;;;;;;;;;;;;;;;5094848;28;901;-62
2023/06/22 15:20:33;;;;;;;;;;;;;;;;;;5093473;28;876;-62
2023/06/22 15:22:58;;;;;;;;;;;;;;;;;;5094787;28;834;-63
2023/06/22 15:25:23;;;;;;;;;;;;;;;;;;5094676;28;840;-63
2023/06/22 15:27:49;;;;;;;;;;;;;;;;;;5095156;28;892;-62
2023/06/22 15:30:14;;;;;;;;;;;;;;;;;;5094891;28;821;-62
2023/06/22 15:32:43;;;;;;;;;;;;;;;;;;5094760;28;1889;-62
2023/06/22 15:35:08;;;;;;;;;;;;;;;;;;5094370;28;1238;-62
2023/06/22 15:37:34;;;;;;;;;;;;;;;;;;5110746;28;1218;-62
2023/06/22 15:39:59;;;;;;;;;;;;;;;;;;5096318;28;1459;-63
2023/06/22 15:42:24;;;;;;;;;;;;;;;;;;5114691;27;1159;-63
2023/06/22 15:44:50;;;;;;;;;;;;;;;;;;5114893;28;1183;-61
2023/06/22 15:47:16;;;;;;;;;;;;;;;;;;5101561;28;1168;-62
2023/06/22 15:49:42;;;;;;;;;;;;;;;;;;5103658;28;1263;-62
2023/06/22 15:52:07;;;;;;;;;;;;;;;;;;5114913;28;1966;-62
2023/06/22 15:54:33;;;;;;;;;;;;;;;;;;5115946;28;868;-62
2023/06/22 15:56:58;;;;;;;;;;;;;;;;;;5117692;28;1023;-62
2023/06/22 15:59:23;;;;;;;;;;;;;;;;;;5117507;28;885;-63
2023/06/22 16:01:49;;;;;;;;;;;;;;;;;;5115030;28;1341;-63
2023/06/22 16:04:14;;;;;;;;;;;;;;;;;;5115859;28;927;-62
2023/06/22 16:06:40;;;;;;;;;;;;;;;;;;5118767;28;1257;-65
2023/06/22 16:09:05;;;;;;;;;;;;;;;;;;5112174;28;1164;-62
2023/06/22 16:11:31;;;;;;;;;;;;;;;;;;5116370;28;1915;-62
2023/06/22 16:13:56;;;;;;;;;;;;;;;;;;5100050;28;1211;-63
2023/06/22 16:16:22;;;;;;;;;;;;;;;;;;5098004;28;1179;-63
2023/06/22 16:18:47;;;;;;;;;;;;;;;;;;5096095;28;854;-63
2023/06/22 16:21:13;;;;;;;;;;;;;;;;;;5095116;28;1151;-63
2023/06/22 16:23:38;;;;;;;;;;;;;;;;;;5111815;28;1104;-63
2023/06/22 16:26:03;;;;;;;;;;;;;;;;;;5112920;28;1241;-63
2023/06/22 16:28:29;;;;;;;;;;;;;;;;;;5112751;28;1222;-62
2023/06/22 16:30:54;;;;;;;;;;;;;;;;;;5113085;28;1902;-62
2023/06/22 16:33:19;;;;;;;;;;;;;;;;;;5113442;28;1222;-65
2023/06/22 16:35:45;;;;;;;;;;;;;;;;;;5113842;28;1035;-63
2023/06/22 16:38:10;;;;;;;;;;;;;;;;;;5113450;28;877;-64
2023/06/22 16:40:35;;;;;;;;;;;;;;;;;;5112464;28;1151;-63
2023/06/22 16:43:01;;;;;;;;;;;;;;;;;;5112173;28;1167;-63
2023/06/22 16:45:32;;;;;;;;;;;;;;;;;;5111074;28;1179;-64
2023/06/22 16:48:00;;;;;;;;;;;;;;;;;;5110695;28;1358;-62
2023/06/22 16:50:25;;;;;;;;;;;;;;;;;;5112406;28;1123;-62
2023/06/22 16:52:51;;;;;;;;;;;;;;;;;;5113143;28;1910;-62
2023/06/22 16:55:16;;;;;;;;;;;;;;;;;;5111835;28;1250;-63
2023/06/22 16:57:41;;;;;;;;;;;;;;;;;;5107980;28;1242;-63
2023/06/22 17:00:11;;;;;;;;;;;;;;;;;;5112008;27;1175;-61
2023/06/22 17:02:56;;;;;;;;;;;;;;;;;;5111001;28;1275;-63